sensor_id;sensor_type;location;lat;lon;timestamp;temperature;humidity
24614;DHT22;12760;46.296;25.290;2023-07-16T00:00:57;22.00;99.90
24614;DHT22;12760;46.296;25.290;2023-07-16T00:03:23;22.00;99.90
24614;DHT22;12760;46.296;25.290;2023-07-16T00:05:52;22.00;99.90
24614;DHT22;12760;46.296;25.290;2023-07-16T00:08:18;22.00;99.90
24614;DHT22;12760;46.296;25.290;2023-07-16T00:10:43;21.90;99.90
24614;DHT22;12760;46.296;25.290;2023-07-16T00:13:09;21.90;99.90
24614;DHT22;12760;46.296;25.290;2023-07-16T00:15:35;22.00;99.90
24614;DHT22;12760;46.296;25.290;2023-07-16T00:18:00;21.90;99.90
24614;DHT22;12760;46.296;25.290;2023-07-16T00:20:26;22.00;99.90
24614;DHT22;12760;46.296;25.290;2023-07-16T00:22:53;21.90;99.90
24614;DHT22;12760;46.296;25.290;2023-07-16T00:25:19;21.70;99.90
24614;DHT22;12760;46.296;25.290;2023-07-16T00:27:45;21.70;99.90
24614;DHT22;12760;46.296;25.290;2023-07-16T00:30:11;21.70;99.90
24614;DHT22;12760;46.296;25.290;2023-07-16T00:32:37;21.80;99.90
24614;DHT22;12760;46.296;25.290;2023-07-16T00:35:03;21.70;99.90
24614;DHT22;12760;46.296;25.290;2023-07-16T00:37:28;21.70;99.90
24614;DHT22;12760;46.296;25.290;2023-07-16T00:39:54;21.70;99.90
24614;DHT22;12760;46.296;25.290;2023-07-16T00:42:21;21.60;99.90
24614;DHT22;12760;46.296;25.290;2023-07-16T00:44:47;21.60;99.90
24614;DHT22;12760;46.296;25.290;2023-07-16T00:47:12;21.50;99.90
24614;DHT22;12760;46.296;25.290;2023-07-16T00:49:38;21.50;99.90
24614;DHT22;12760;46.296;25.290;2023-07-16T00:52:06;21.60;99.90
24614;DHT22;12760;46.296;25.290;2023-07-16T00:54:32;21.60;99.90
24614;DHT22;12760;46.296;25.290;2023-07-16T00:56:58;21.50;99.90
24614;DHT22;12760;46.296;25.290;2023-07-16T00:59:24;21.50;99.90
24614;DHT22;12760;46.296;25.290;2023-07-16T01:01:50;21.40;99.90
24614;DHT22;12760;46.296;25.290;2023-07-16T01:04:16;21.40;99.90
24614;DHT22;12760;46.296;25.290;2023-07-16T01:06:46;21.40;99.90
24614;DHT22;12760;46.296;25.290;2023-07-16T01:09:17;21.30;99.90
24614;DHT22;12760;46.296;25.290;2023-07-16T01:11:45;21.30;99.90
24614;DHT22;12760;46.296;25.290;2023-07-16T01:14:12;21.30;99.90
24614;DHT22;12760;46.296;25.290;2023-07-16T01:16:38;21.30;99.90
24614;DHT22;12760;46.296;25.290;2023-07-16T01:19:04;21.30;99.90
24614;DHT22;12760;46.296;25.290;2023-07-16T01:22:10;21.20;99.90
24614;DHT22;12760;46.296;25.290;2023-07-16T01:31:09;21.20;99.90
24614;DHT22;12760;46.296;25.290;2023-07-16T01:33:37;21.10;99.90
24614;DHT22;12760;46.296;25.290;2023-07-16T01:36:04;21.10;99.90
24614;DHT22;12760;46.296;25.290;2023-07-16T01:38:31;21.10;99.90
24614;DHT22;12760;46.296;25.290;2023-07-16T01:40:57;21.10;99.90
24614;DHT22;12760;46.296;25.290;2023-07-16T01:43:23;21.00;99.90
24614;DHT22;12760;46.296;25.290;2023-07-16T01:45:49;21.00;99.90
24614;DHT22;12760;46.296;25.290;2023-07-16T01:48:28;21.10;99.90
24614;DHT22;12760;46.296;25.290;2023-07-16T01:50:55;21.00;99.90
24614;DHT22;12760;46.296;25.290;2023-07-16T01:53:20;20.90;99.90
24614;DHT22;12760;46.296;25.290;2023-07-16T01:55:46;20.90;99.90
24614;DHT22;12760;46.296;25.290;2023-07-16T01:58:12;20.80;99.90
24614;DHT22;12760;46.296;25.290;2023-07-16T02:00:38;20.80;99.90
24614;DHT22;12760;46.296;25.290;2023-07-16T02:03:04;20.80;99.90
24614;DHT22;12760;46.296;25.290;2023-07-16T02:05:30;20.90;99.90
24614;DHT22;12760;46.296;25.290;2023-07-16T02:07:55;20.90;99.90
24614;DHT22;12760;46.296;25.290;2023-07-16T02:10:21;20.90;99.90
24614;DHT22;12760;46.296;25.290;2023-07-16T02:12:47;20.90;99.90
24614;DHT22;12760;46.296;25.290;2023-07-16T02:15:12;21.00;99.90
24614;DHT22;12760;46.296;25.290;2023-07-16T02:17:38;20.90;99.90
24614;DHT22;12760;46.296;25.290;2023-07-16T02:20:04;20.90;99.90
24614;DHT22;12760;46.296;25.290;2023-07-16T02:22:31;20.90;99.90
24614;DHT22;12760;46.296;25.290;2023-07-16T02:24:56;20.90;99.90
24614;DHT22;12760;46.296;25.290;2023-07-16T02:27:22;20.90;99.90
24614;DHT22;12760;46.296;25.290;2023-07-16T02:29:48;20.80;99.90
24614;DHT22;12760;46.296;25.290;2023-07-16T02:32:13;20.70;99.90
24614;DHT22;12760;46.296;25.290;2023-07-16T02:34:39;20.80;99.90
24614;DHT22;12760;46.296;25.290;2023-07-16T02:37:05;20.70;99.90
24614;DHT22;12760;46.296;25.290;2023-07-16T02:39:31;20.70;99.90
24614;DHT22;12760;46.296;25.290;2023-07-16T02:41:56;20.60;99.90
24614;DHT22;12760;46.296;25.290;2023-07-16T02:44:22;20.70;99.90
24614;DHT22;12760;46.296;25.290;2023-07-16T02:46:48;20.60;99.90
24614;DHT22;12760;46.296;25.290;2023-07-16T02:49:13;20.60;99.90
24614;DHT22;12760;46.296;25.290;2023-07-16T02:51:39;20.50;99.90
24614;DHT22;12760;46.296;25.290;2023-07-16T02:54:05;20.50;99.90
24614;DHT22;12760;46.296;25.290;2023-07-16T02:56:30;20.50;99.90
24614;DHT22;12760;46.296;25.290;2023-07-16T02:58:56;20.40;99.90
24614;DHT22;12760;46.296;25.290;2023-07-16T03:01:22;20.40;99.90
24614;DHT22;12760;46.296;25.290;2023-07-16T03:03:47;20.40;99.90
24614;DHT22;12760;46.296;25.290;2023-07-16T03:06:13;20.40;99.90
24614;DHT22;12760;46.296;25.290;2023-07-16T03:08:39;20.40;99.90
24614;DHT22;12760;46.296;25.290;2023-07-16T03:11:04;20.40;99.90
24614;DHT22;12760;46.296;25.290;2023-07-16T03:13:30;20.30;99.90
24614;DHT22;12760;46.296;25.290;2023-07-16T03:15:56;20.30;99.90
24614;DHT22;12760;46.296;25.290;2023-07-16T03:18:21;20.30;99.90
24614;DHT22;12760;46.296;25.290;2023-07-16T03:20:47;20.40;99.90
24614;DHT22;12760;46.296;25.290;2023-07-16T03:23:13;20.30;99.90
24614;DHT22;12760;46.296;25.290;2023-07-16T03:25:39;20.40;99.90
24614;DHT22;12760;46.296;25.290;2023-07-16T03:28:04;20.40;99.90
24614;DHT22;12760;46.296;25.290;2023-07-16T03:30:31;20.40;99.90
24614;DHT22;12760;46.296;25.290;2023-07-16T03:32:56;20.40;99.90
24614;DHT22;12760;46.296;25.290;2023-07-16T03:35:22;20.40;99.90
24614;DHT22;12760;46.296;25.290;2023-07-16T03:37:48;20.40;99.90
24614;DHT22;12760;46.296;25.290;2023-07-16T03:40:22;20.40;99.90
24614;DHT22;12760;46.296;25.290;2023-07-16T03:42:48;20.30;99.90
24614;DHT22;12760;46.296;25.290;2023-07-16T03:45:13;20.40;99.90
24614;DHT22;12760;46.296;25.290;2023-07-16T03:47:40;20.40;99.90
24614;DHT22;12760;46.296;25.290;2023-07-16T03:50:06;20.50;99.90
24614;DHT22;12760;46.296;25.290;2023-07-16T03:52:32;20.40;99.90
24614;DHT22;12760;46.296;25.290;2023-07-16T03:54:58;20.50;99.90
24614;DHT22;12760;46.296;25.290;2023-07-16T03:57:23;20.50;99.90
24614;DHT22;12760;46.296;25.290;2023-07-16T03:59:49;20.50;99.90
24614;DHT22;12760;46.296;25.290;2023-07-16T04:02:15;20.50;99.90
24614;DHT22;12760;46.296;25.290;2023-07-16T04:04:40;20.40;99.90
24614;DHT22;12760;46.296;25.290;2023-07-16T04:07:06;20.50;99.90
24614;DHT22;12760;46.296;25.290;2023-07-16T04:09:32;20.50;99.90
24614;DHT22;12760;46.296;25.290;2023-07-16T04:11:57;20.60;99.90
24614;DHT22;12760;46.296;25.290;2023-07-16T04:14:23;20.50;99.90
24614;DHT22;12760;46.296;25.290;2023-07-16T04:16:49;20.60;99.90
24614;DHT22;12760;46.296;25.290;2023-07-16T04:19:14;20.60;99.90
24614;DHT22;12760;46.296;25.290;2023-07-16T04:21:40;20.70;99.90
24614;DHT22;12760;46.296;25.290;2023-07-16T04:24:06;20.60;99.90
24614;DHT22;12760;46.296;25.290;2023-07-16T04:26:32;20.60;99.90
24614;DHT22;12760;46.296;25.290;2023-07-16T04:28:58;20.70;99.90
24614;DHT22;12760;46.296;25.290;2023-07-16T04:31:23;20.60;99.90
24614;DHT22;12760;46.296;25.290;2023-07-16T04:33:50;20.70;99.90
24614;DHT22;12760;46.296;25.290;2023-07-16T04:36:16;20.70;99.90
24614;DHT22;12760;46.296;25.290;2023-07-16T04:38:42;20.70;99.90
24614;DHT22;12760;46.296;25.290;2023-07-16T04:41:07;20.70;99.90
24614;DHT22;12760;46.296;25.290;2023-07-16T04:43:33;20.80;99.90
24614;DHT22;12760;46.296;25.290;2023-07-16T04:45:59;20.80;99.90
24614;DHT22;12760;46.296;25.290;2023-07-16T04:48:25;20.80;99.90
24614;DHT22;12760;46.296;25.290;2023-07-16T04:50:51;20.90;99.90
24614;DHT22;12760;46.296;25.290;2023-07-16T04:53:20;21.00;99.90
24614;DHT22;12760;46.296;25.290;2023-07-16T04:55:46;21.10;99.90
24614;DHT22;12760;46.296;25.290;2023-07-16T04:58:12;21.10;99.90
24614;DHT22;12760;46.296;25.290;2023-07-16T05:00:38;21.30;99.90
24614;DHT22;12760;46.296;25.290;2023-07-16T05:03:04;21.40;99.90
24614;DHT22;12760;46.296;25.290;2023-07-16T05:05:29;21.50;99.90
24614;DHT22;12760;46.296;25.290;2023-07-16T05:07:55;21.50;99.90
24614;DHT22;12760;46.296;25.290;2023-07-16T05:10:21;21.50;99.90
24614;DHT22;12760;46.296;25.290;2023-07-16T05:12:46;21.60;99.90
24614;DHT22;12760;46.296;25.290;2023-07-16T05:15:12;21.70;99.90
24614;DHT22;12760;46.296;25.290;2023-07-16T05:17:38;21.80;99.90
24614;DHT22;12760;46.296;25.290;2023-07-16T05:20:05;21.70;99.90
24614;DHT22;12760;46.296;25.290;2023-07-16T05:22:31;21.80;99.90
24614;DHT22;12760;46.296;25.290;2023-07-16T05:24:57;21.80;99.90
24614;DHT22;12760;46.296;25.290;2023-07-16T05:27:23;21.90;99.90
24614;DHT22;12760;46.296;25.290;2023-07-16T05:29:49;21.90;99.90
24614;DHT22;12760;46.296;25.290;2023-07-16T05:32:14;21.90;99.90
24614;DHT22;12760;46.296;25.290;2023-07-16T05:34:40;22.00;99.90
24614;DHT22;12760;46.296;25.290;2023-07-16T05:37:06;21.90;99.90
24614;DHT22;12760;46.296;25.290;2023-07-16T05:39:31;22.10;99.90
24614;DHT22;12760;46.296;25.290;2023-07-16T05:41:57;22.30;99.90
24614;DHT22;12760;46.296;25.290;2023-07-16T05:44:23;22.50;99.90
24614;DHT22;12760;46.296;25.290;2023-07-16T05:46:49;22.80;99.90
24614;DHT22;12760;46.296;25.290;2023-07-16T05:49:14;23.10;99.90
24614;DHT22;12760;46.296;25.290;2023-07-16T05:51:40;23.30;99.90
24614;DHT22;12760;46.296;25.290;2023-07-16T05:54:06;23.50;99.90
24614;DHT22;12760;46.296;25.290;2023-07-16T05:56:32;23.80;99.90
24614;DHT22;12760;46.296;25.290;2023-07-16T05:58:57;24.10;99.90
24614;DHT22;12760;46.296;25.290;2023-07-16T06:01:23;24.40;99.90
24614;DHT22;12760;46.296;25.290;2023-07-16T06:03:49;24.70;99.90
24614;DHT22;12760;46.296;25.290;2023-07-16T06:06:15;24.80;99.90
24614;DHT22;12760;46.296;25.290;2023-07-16T06:08:40;25.00;99.90
24614;DHT22;12760;46.296;25.290;2023-07-16T06:11:06;25.20;99.90
24614;DHT22;12760;46.296;25.290;2023-07-16T06:13:32;25.50;99.90
24614;DHT22;12760;46.296;25.290;2023-07-16T06:15:57;25.70;99.90
24614;DHT22;12760;46.296;25.290;2023-07-16T06:18:23;25.80;99.90
24614;DHT22;12760;46.296;25.290;2023-07-16T06:20:49;25.90;99.90
24614;DHT22;12760;46.296;25.290;2023-07-16T06:23:16;26.10;99.90
24614;DHT22;12760;46.296;25.290;2023-07-16T06:25:42;26.40;99.90
24614;DHT22;12760;46.296;25.290;2023-07-16T06:28:10;26.70;99.90
24614;DHT22;12760;46.296;25.290;2023-07-16T06:30:37;26.80;99.90
24614;DHT22;12760;46.296;25.290;2023-07-16T06:33:02;27.00;99.90
24614;DHT22;12760;46.296;25.290;2023-07-16T06:35:28;27.20;99.90
24614;DHT22;12760;46.296;25.290;2023-07-16T06:37:54;27.30;99.90
24614;DHT22;12760;46.296;25.290;2023-07-16T06:40:19;27.40;99.90
24614;DHT22;12760;46.296;25.290;2023-07-16T06:42:45;27.50;99.90
24614;DHT22;12760;46.296;25.290;2023-07-16T06:45:11;27.60;99.90
24614;DHT22;12760;46.296;25.290;2023-07-16T06:47:36;27.70;99.90
24614;DHT22;12760;46.296;25.290;2023-07-16T06:50:02;27.80;99.90
24614;DHT22;12760;46.296;25.290;2023-07-16T06:52:28;28.00;99.90
24614;DHT22;12760;46.296;25.290;2023-07-16T06:54:54;28.10;99.90
24614;DHT22;12760;46.296;25.290;2023-07-16T06:57:21;28.10;99.90
24614;DHT22;12760;46.296;25.290;2023-07-16T06:59:46;28.30;99.90
24614;DHT22;12760;46.296;25.290;2023-07-16T07:02:12;28.50;99.90
24614;DHT22;12760;46.296;25.290;2023-07-16T07:04:38;28.60;99.90
24614;DHT22;12760;46.296;25.290;2023-07-16T07:07:04;28.70;99.90
24614;DHT22;12760;46.296;25.290;2023-07-16T07:09:30;28.90;99.90
24614;DHT22;12760;46.296;25.290;2023-07-16T07:11:56;29.00;99.90
24614;DHT22;12760;46.296;25.290;2023-07-16T07:14:22;29.10;99.90
24614;DHT22;12760;46.296;25.290;2023-07-16T07:16:47;29.30;99.90
24614;DHT22;12760;46.296;25.290;2023-07-16T07:19:13;29.40;99.90
24614;DHT22;12760;46.296;25.290;2023-07-16T07:21:39;29.60;99.90
24614;DHT22;12760;46.296;25.290;2023-07-16T07:24:05;29.80;99.90
24614;DHT22;12760;46.296;25.290;2023-07-16T07:26:31;30.00;99.90
24614;DHT22;12760;46.296;25.290;2023-07-16T07:28:57;30.10;99.90
24614;DHT22;12760;46.296;25.290;2023-07-16T07:31:22;30.30;99.90
24614;DHT22;12760;46.296;25.290;2023-07-16T07:33:48;30.60;99.90
24614;DHT22;12760;46.296;25.290;2023-07-16T07:36:14;30.60;99.90
24614;DHT22;12760;46.296;25.290;2023-07-16T07:38:39;30.70;99.90
24614;DHT22;12760;46.296;25.290;2023-07-16T07:41:06;30.90;99.90
24614;DHT22;12760;46.296;25.290;2023-07-16T07:43:32;31.10;99.90
24614;DHT22;12760;46.296;25.290;2023-07-16T07:45:57;31.00;99.90
24614;DHT22;12760;46.296;25.290;2023-07-16T07:48:23;31.20;99.90
24614;DHT22;12760;46.296;25.290;2023-07-16T07:50:49;31.30;99.90
24614;DHT22;12760;46.296;25.290;2023-07-16T07:53:16;31.40;99.90
24614;DHT22;12760;46.296;25.290;2023-07-16T07:55:44;31.50;99.50
24614;DHT22;12760;46.296;25.290;2023-07-16T07:58:10;31.50;99.90
24614;DHT22;12760;46.296;25.290;2023-07-16T08:00:35;31.70;99.60
24614;DHT22;12760;46.296;25.290;2023-07-16T08:03:01;31.80;98.50
24614;DHT22;12760;46.296;25.290;2023-07-16T08:05:27;31.80;98.40
24614;DHT22;12760;46.296;25.290;2023-07-16T08:07:53;32.00;98.50
24614;DHT22;12760;46.296;25.290;2023-07-16T08:10:19;32.20;98.70
24614;DHT22;12760;46.296;25.290;2023-07-16T08:12:45;32.30;98.30
24614;DHT22;12760;46.296;25.290;2023-07-16T08:15:10;32.30;98.50
24614;DHT22;12760;46.296;25.290;2023-07-16T08:17:44;32.40;97.80
24614;DHT22;12760;46.296;25.290;2023-07-16T08:20:11;32.60;98.30
24614;DHT22;12760;46.296;25.290;2023-07-16T08:22:37;32.70;97.60
24614;DHT22;12760;46.296;25.290;2023-07-16T08:25:03;32.70;97.40
24614;DHT22;12760;46.296;25.290;2023-07-16T08:27:30;32.60;97.50
24614;DHT22;12760;46.296;25.290;2023-07-16T08:29:55;32.80;97.60
24614;DHT22;12760;46.296;25.290;2023-07-16T08:32:22;32.80;97.70
24614;DHT22;12760;46.296;25.290;2023-07-16T08:34:49;32.50;97.00
24614;DHT22;12760;46.296;25.290;2023-07-16T08:37:15;32.20;97.30
24614;DHT22;12760;46.296;25.290;2023-07-16T08:39:40;32.50;97.60
24614;DHT22;12760;46.296;25.290;2023-07-16T08:42:09;32.50;96.40
24614;DHT22;12760;46.296;25.290;2023-07-16T08:44:37;32.80;97.30
24614;DHT22;12760;46.296;25.290;2023-07-16T08:47:04;32.70;96.30
24614;DHT22;12760;46.296;25.290;2023-07-16T08:49:31;32.90;96.50
24614;DHT22;12760;46.296;25.290;2023-07-16T08:51:56;33.00;96.30
24614;DHT22;12760;46.296;25.290;2023-07-16T08:54:22;33.00;95.20
24614;DHT22;12760;46.296;25.290;2023-07-16T08:56:49;32.90;94.80
24614;DHT22;12760;46.296;25.290;2023-07-16T08:59:15;33.00;95.40
24614;DHT22;12760;46.296;25.290;2023-07-16T09:01:41;33.20;94.60
24614;DHT22;12760;46.296;25.290;2023-07-16T09:04:07;33.40;95.20
24614;DHT22;12760;46.296;25.290;2023-07-16T09:06:33;33.50;95.20
24614;DHT22;12760;46.296;25.290;2023-07-16T09:08:59;33.70;95.40
24614;DHT22;12760;46.296;25.290;2023-07-16T09:11:25;33.50;94.50
24614;DHT22;12760;46.296;25.290;2023-07-16T09:13:50;33.40;94.10
24614;DHT22;12760;46.296;25.290;2023-07-16T09:16:19;33.30;94.60
24614;DHT22;12760;46.296;25.290;2023-07-16T09:18:46;33.40;95.30
24614;DHT22;12760;46.296;25.290;2023-07-16T09:21:12;33.60;95.30
24614;DHT22;12760;46.296;25.290;2023-07-16T09:23:38;33.90;95.10
24614;DHT22;12760;46.296;25.290;2023-07-16T09:26:05;34.10;95.00
24614;DHT22;12760;46.296;25.290;2023-07-16T09:28:31;34.00;94.50
24614;DHT22;12760;46.296;25.290;2023-07-16T09:31:04;34.00;94.90
24614;DHT22;12760;46.296;25.290;2023-07-16T09:33:31;34.00;93.60
24614;DHT22;12760;46.296;25.290;2023-07-16T09:35:57;34.10;93.60
24614;DHT22;12760;46.296;25.290;2023-07-16T09:38:23;34.20;93.60
24614;DHT22;12760;46.296;25.290;2023-07-16T09:40:51;34.00;93.50
24614;DHT22;12760;46.296;25.290;2023-07-16T09:43:18;34.10;93.70
24614;DHT22;12760;46.296;25.290;2023-07-16T09:45:43;33.80;93.40
24614;DHT22;12760;46.296;25.290;2023-07-16T09:48:09;33.50;93.20
24614;DHT22;12760;46.296;25.290;2023-07-16T09:50:36;33.50;93.50
24614;DHT22;12760;46.296;25.290;2023-07-16T09:53:04;33.40;93.60
24614;DHT22;12760;46.296;25.290;2023-07-16T09:55:35;33.20;93.90
24614;DHT22;12760;46.296;25.290;2023-07-16T09:58:03;33.10;94.20
24614;DHT22;12760;46.296;25.290;2023-07-16T10:00:32;33.30;94.10
24614;DHT22;12760;46.296;25.290;2023-07-16T10:02:58;32.80;93.90
24614;DHT22;12760;46.296;25.290;2023-07-16T10:05:26;32.70;93.80
24614;DHT22;12760;46.296;25.290;2023-07-16T10:07:58;32.80;93.30
24614;DHT22;12760;46.296;25.290;2023-07-16T10:10:47;33.00;93.80
24614;DHT22;12760;46.296;25.290;2023-07-16T10:13:14;33.10;93.20
24614;DHT22;12760;46.296;25.290;2023-07-16T10:15:57;33.00;93.40
24614;DHT22;12760;46.296;25.290;2023-07-16T10:18:32;32.90;93.00
24614;DHT22;12760;46.296;25.290;2023-07-16T10:21:09;32.90;92.70
24614;DHT22;12760;46.296;25.290;2023-07-16T10:23:43;33.20;93.30
24614;DHT22;12760;46.296;25.290;2023-07-16T10:26:14;33.00;92.50
24614;DHT22;12760;46.296;25.290;2023-07-16T10:28:40;33.10;93.00
24614;DHT22;12760;46.296;25.290;2023-07-16T10:31:17;33.30;93.40
24614;DHT22;12760;46.296;25.290;2023-07-16T10:33:43;33.40;92.50
24614;DHT22;12760;46.296;25.290;2023-07-16T10:36:09;33.40;92.40
24614;DHT22;12760;46.296;25.290;2023-07-16T10:38:41;33.30;92.90
24614;DHT22;12760;46.296;25.290;2023-07-16T10:41:09;33.70;93.00
24614;DHT22;12760;46.296;25.290;2023-07-16T10:43:35;34.00;92.60
24614;DHT22;12760;46.296;25.290;2023-07-16T10:46:02;34.20;92.20
24614;DHT22;12760;46.296;25.290;2023-07-16T10:48:28;34.20;91.80
24614;DHT22;12760;46.296;25.290;2023-07-16T10:50:54;34.20;92.10
24614;DHT22;12760;46.296;25.290;2023-07-16T10:53:20;34.10;92.30
24614;DHT22;12760;46.296;25.290;2023-07-16T10:55:46;34.20;92.20
24614;DHT22;12760;46.296;25.290;2023-07-16T10:58:11;34.20;91.90
24614;DHT22;12760;46.296;25.290;2023-07-16T11:00:39;34.30;92.70
24614;DHT22;12760;46.296;25.290;2023-07-16T11:03:05;34.10;91.30
24614;DHT22;12760;46.296;25.290;2023-07-16T11:05:31;34.10;92.20
24614;DHT22;12760;46.296;25.290;2023-07-16T11:07:57;33.90;91.80
24614;DHT22;12760;46.296;25.290;2023-07-16T11:10:23;33.70;91.80
24614;DHT22;12760;46.296;25.290;2023-07-16T11:12:53;33.70;92.00
24614;DHT22;12760;46.296;25.290;2023-07-16T11:15:30;33.70;91.80
24614;DHT22;12760;46.296;25.290;2023-07-16T11:17:56;33.90;92.40
24614;DHT22;12760;46.296;25.290;2023-07-16T11:20:22;34.00;91.70
24614;DHT22;12760;46.296;25.290;2023-07-16T11:22:48;34.10;90.80
24614;DHT22;12760;46.296;25.290;2023-07-16T11:25:14;34.10;90.60
24614;DHT22;12760;46.296;25.290;2023-07-16T11:27:43;34.30;91.00
24614;DHT22;12760;46.296;25.290;2023-07-16T11:30:09;34.10;90.40
24614;DHT22;12760;46.296;25.290;2023-07-16T11:32:42;33.60;90.00
24614;DHT22;12760;46.296;25.290;2023-07-16T11:35:14;33.60;90.70
24614;DHT22;12760;46.296;25.290;2023-07-16T11:37:40;33.70;90.40
24614;DHT22;12760;46.296;25.290;2023-07-16T11:40:08;33.80;90.60
24614;DHT22;12760;46.296;25.290;2023-07-16T11:42:36;33.90;90.10
24614;DHT22;12760;46.296;25.290;2023-07-16T11:45:03;33.70;90.20
24614;DHT22;12760;46.296;25.290;2023-07-16T11:47:30;33.90;90.90
24614;DHT22;12760;46.296;25.290;2023-07-16T11:49:56;33.60;88.40
24614;DHT22;12760;46.296;25.290;2023-07-16T11:52:27;33.60;90.40
24614;DHT22;12760;46.296;25.290;2023-07-16T11:54:57;33.70;90.20
24614;DHT22;12760;46.296;25.290;2023-07-16T11:57:25;33.50;90.20
24614;DHT22;12760;46.296;25.290;2023-07-16T11:59:51;33.60;90.20
24614;DHT22;12760;46.296;25.290;2023-07-16T12:02:17;33.80;90.50
24614;DHT22;12760;46.296;25.290;2023-07-16T12:04:42;34.00;91.30
24614;DHT22;12760;46.296;25.290;2023-07-16T12:07:08;34.00;91.20
24614;DHT22;12760;46.296;25.290;2023-07-16T12:09:34;34.10;91.20
24614;DHT22;12760;46.296;25.290;2023-07-16T12:12:00;33.90;90.10
24614;DHT22;12760;46.296;25.290;2023-07-16T12:14:26;33.90;90.80
24614;DHT22;12760;46.296;25.290;2023-07-16T12:16:52;34.00;91.00
24614;DHT22;12760;46.296;25.290;2023-07-16T12:19:18;34.00;91.00
24614;DHT22;12760;46.296;25.290;2023-07-16T12:21:44;34.20;91.30
24614;DHT22;12760;46.296;25.290;2023-07-16T12:24:11;34.20;90.80
24614;DHT22;12760;46.296;25.290;2023-07-16T12:26:36;34.20;90.50
24614;DHT22;12760;46.296;25.290;2023-07-16T12:29:03;34.00;90.00
24614;DHT22;12760;46.296;25.290;2023-07-16T12:31:32;33.90;89.70
24614;DHT22;12760;46.296;25.290;2023-07-16T12:33:58;33.80;90.40
24614;DHT22;12760;46.296;25.290;2023-07-16T12:36:25;33.70;90.60
24614;DHT22;12760;46.296;25.290;2023-07-16T12:38:50;33.80;91.50
24614;DHT22;12760;46.296;25.290;2023-07-16T12:41:16;33.90;91.40
24614;DHT22;12760;46.296;25.290;2023-07-16T12:43:42;33.70;91.30
24614;DHT22;12760;46.296;25.290;2023-07-16T12:46:08;33.90;91.50
24614;DHT22;12760;46.296;25.290;2023-07-16T12:48:34;34.00;91.60
24614;DHT22;12760;46.296;25.290;2023-07-16T12:51:00;34.20;91.50
24614;DHT22;12760;46.296;25.290;2023-07-16T12:53:26;34.40;91.10
24614;DHT22;12760;46.296;25.290;2023-07-16T12:55:52;34.50;91.30
24614;DHT22;12760;46.296;25.290;2023-07-16T12:58:18;34.50;91.10
24614;DHT22;12760;46.296;25.290;2023-07-16T13:00:44;34.50;90.50
24614;DHT22;12760;46.296;25.290;2023-07-16T13:03:10;34.50;91.00
24614;DHT22;12760;46.296;25.290;2023-07-16T13:05:40;34.60;91.60
24614;DHT22;12760;46.296;25.290;2023-07-16T13:08:06;34.60;90.80
24614;DHT22;12760;46.296;25.290;2023-07-16T13:10:32;34.60;91.00
24614;DHT22;12760;46.296;25.290;2023-07-16T13:12:58;34.60;90.70
24614;DHT22;12760;46.296;25.290;2023-07-16T13:15:24;34.70;91.10
24614;DHT22;12760;46.296;25.290;2023-07-16T13:17:49;34.70;90.60
24614;DHT22;12760;46.296;25.290;2023-07-16T13:20:15;34.80;90.60
24614;DHT22;12760;46.296;25.290;2023-07-16T13:22:41;34.80;91.30
24614;DHT22;12760;46.296;25.290;2023-07-16T13:25:07;34.80;90.40
24614;DHT22;12760;46.296;25.290;2023-07-16T13:27:33;34.70;90.50
24614;DHT22;12760;46.296;25.290;2023-07-16T13:29:58;34.60;91.10
24614;DHT22;12760;46.296;25.290;2023-07-16T13:32:24;34.50;90.90
24614;DHT22;12760;46.296;25.290;2023-07-16T13:34:50;34.30;90.60
24614;DHT22;12760;46.296;25.290;2023-07-16T13:37:15;34.10;90.60
24614;DHT22;12760;46.296;25.290;2023-07-16T13:39:41;34.10;91.00
24614;DHT22;12760;46.296;25.290;2023-07-16T13:42:07;34.20;91.30
24614;DHT22;12760;46.296;25.290;2023-07-16T13:44:35;34.30;91.80
24614;DHT22;12760;46.296;25.290;2023-07-16T13:47:01;34.40;91.30
24614;DHT22;12760;46.296;25.290;2023-07-16T13:49:27;33.80;90.80
24614;DHT22;12760;46.296;25.290;2023-07-16T13:51:52;34.00;91.40
24614;DHT22;12760;46.296;25.290;2023-07-16T13:54:18;33.80;91.30
24614;DHT22;12760;46.296;25.290;2023-07-16T13:56:44;33.60;91.30
24614;DHT22;12760;46.296;25.290;2023-07-16T13:59:10;33.60;91.60
24614;DHT22;12760;46.296;25.290;2023-07-16T14:01:39;33.90;91.50
24614;DHT22;12760;46.296;25.290;2023-07-16T14:04:06;34.10;91.80
24614;DHT22;12760;46.296;25.290;2023-07-16T14:06:32;33.90;90.90
24614;DHT22;12760;46.296;25.290;2023-07-16T14:08:58;33.80;91.50
24614;DHT22;12760;46.296;25.290;2023-07-16T14:11:24;34.00;91.90
24614;DHT22;12760;46.296;25.290;2023-07-16T14:13:50;34.10;91.10
24614;DHT22;12760;46.296;25.290;2023-07-16T14:16:23;34.10;91.20
24614;DHT22;12760;46.296;25.290;2023-07-16T14:18:52;34.20;91.70
24614;DHT22;12760;46.296;25.290;2023-07-16T14:21:18;34.10;91.10
24614;DHT22;12760;46.296;25.290;2023-07-16T14:23:44;34.20;91.70
24614;DHT22;12760;46.296;25.290;2023-07-16T14:26:10;34.20;91.70
24614;DHT22;12760;46.296;25.290;2023-07-16T14:28:35;34.20;91.40
24614;DHT22;12760;46.296;25.290;2023-07-16T14:31:01;34.20;91.50
24614;DHT22;12760;46.296;25.290;2023-07-16T14:33:27;34.10;91.60
24614;DHT22;12760;46.296;25.290;2023-07-16T14:35:53;34.20;91.80
24614;DHT22;12760;46.296;25.290;2023-07-16T14:38:19;34.20;92.00
24614;DHT22;12760;46.296;25.290;2023-07-16T14:40:45;34.20;91.60
24614;DHT22;12760;46.296;25.290;2023-07-16T14:43:11;34.20;92.10
24614;DHT22;12760;46.296;25.290;2023-07-16T14:45:37;34.20;91.80
24614;DHT22;12760;46.296;25.290;2023-07-16T14:48:04;34.20;91.40
24614;DHT22;12760;46.296;25.290;2023-07-16T14:50:30;34.10;91.80
24614;DHT22;12760;46.296;25.290;2023-07-16T14:52:56;34.00;91.70
24614;DHT22;12760;46.296;25.290;2023-07-16T14:55:21;33.90;91.60
24614;DHT22;12760;46.296;25.290;2023-07-16T14:57:48;33.80;91.70
24614;DHT22;12760;46.296;25.290;2023-07-16T15:00:14;33.70;91.80
24614;DHT22;12760;46.296;25.290;2023-07-16T15:02:40;33.70;92.30
24614;DHT22;12760;46.296;25.290;2023-07-16T15:05:07;33.80;92.50
24614;DHT22;12760;46.296;25.290;2023-07-16T15:07:36;33.90;92.70
24614;DHT22;12760;46.296;25.290;2023-07-16T15:10:05;33.90;92.30
24614;DHT22;12760;46.296;25.290;2023-07-16T15:12:31;34.00;92.50
24614;DHT22;12760;46.296;25.290;2023-07-16T15:14:57;34.00;92.20
24614;DHT22;12760;46.296;25.290;2023-07-16T15:17:23;34.00;92.20